M I D A S
Marine Information and Data Acquisition System
Tripno 64 of the Zeeleeuw from 2001-10-29 07:55:50 to 2001-10-29 14:55:00
Back to CruiseResearch ActivitiesStationsMapUnderway DataData graphs

EquipmentUnitsComment
TimeDGPSUTC
LatitudeDGPSDM.mWGS84
LongitudeDGPSDM.mWGS84
TemperatureSBE03/SBE38deg celciusITS90
ConductivitySBE21S/mITS90
SalinitySBE21 Practical Salinity Units
ChlorophylAChelsea fluorimeterg/lCalibrated in Aceton
Missing or incorrect values are displayed as -999
Sea surface data collected by the RV Zeeleeuw from 2001-10-29 07:55:50 to 2001-10-29 14:55:00
                                                                                    Next 1000 lines
Time Latitude Longitude Temperature Conductivity Salinity ChlorophylA
2001-10-29 07:56:00 51°13.689 2°55.905 -999 -999 -999  
2001-10-29 07:56:05 51°13.689 2°55.905 -999 -999 -999  
2001-10-29 08:09:11 51°13.689 2°55.905 19.798227 0.152648 0.808759  
2001-10-29 08:09:17 51°13.689 2°55.905 19.809507 0.15245 0.807664  
2001-10-29 08:09:21 51°13.69 2°55.905 19.813524 0.152351 0.807116  
2001-10-29 08:09:26 51°13.689 2°55.905 19.808006 0.152154 0.806033  
2001-10-29 08:09:31 51°13.689 2°55.905 19.809142 0.152055 0.805473  
2001-10-29 08:09:37 51°13.689 2°55.905 19.811455 0.151858 0.80439  
2001-10-29 08:09:41 51°13.689 2°55.905 19.811455 0.151858 0.80439  
2001-10-29 08:09:47 51°13.689 2°55.905 19.814944 0.151759 0.803855  
2001-10-29 08:09:51 51°13.689 2°55.905 19.808087 0.15166 0.803295  
2001-10-29 08:09:56 51°13.689 2°55.905 19.809507 0.151462 0.8022  
2001-10-29 08:10:01 51°13.689 2°55.905 19.809872 0.151364 0.801665  
2001-10-29 08:10:07 51°13.689 2°55.905 19.80334 0.151265 0.801117  
2001-10-29 08:10:11 51°13.689 2°55.905 19.80334 0.151265 0.801117  
2001-10-29 08:10:17 51°13.689 2°55.906 19.808371 0.151166 0.80057  
2001-10-29 08:10:21 51°13.689 2°55.906 19.80687 0.151067 0.800023  
2001-10-29 08:10:27 51°13.689 2°55.906 19.809264 0.150969 0.799487  
2001-10-29 08:10:31 51°13.689 2°55.906 19.810035 0.15087 0.79894  
2001-10-29 08:10:36 51°13.689 2°55.905 19.811576 0.150771 0.798381  
2001-10-29 08:10:41 51°13.689 2°55.905 19.811576 0.150771 0.798381  
2001-10-29 08:10:46 51°13.689 2°55.906 19.811374 0.150573 0.797298  
2001-10-29 08:10:51 51°13.689 2°55.905 19.811942 0.150475 0.796751  
2001-10-29 08:10:57 51°13.689 2°55.905 19.810197 0.150376 0.796204  
2001-10-29 08:11:01 51°13.689 2°55.905 19.808696 0.150277 0.795657  
2001-10-29 08:11:06 51°13.689 2°55.905 19.814741 0.150178 0.795109  
2001-10-29 08:11:11 51°13.689 2°55.905 19.814741 0.150178 0.795109  
2001-10-29 08:11:16 51°13.689 2°55.905 19.813159 0.15008 0.794574  
2001-10-29 08:11:21 51°13.689 2°55.905 19.811414 0.149981 0.794027  
2001-10-29 08:11:27 51°13.689 2°55.905 19.807276 0.149981 0.794027  
2001-10-29 08:11:31 51°13.689 2°55.905 19.809142 0.149783 0.792921  
2001-10-29 08:11:37 51°13.689 2°55.905 19.808128 0.149783 0.792933  
2001-10-29 08:11:41 51°13.689 2°55.905 19.808128 0.149783 0.792933  
2001-10-29 08:11:46 51°13.689 2°55.905 19.81328 0.149684 0.792374  
2001-10-29 08:11:51 51°13.689 2°55.905 19.808533 0.149586 0.791839  
2001-10-29 08:11:56 51°13.689 2°55.905 19.809751 0.149487 0.791292  
2001-10-29 08:12:01 51°13.689 2°55.905 19.813686 0.149388 0.790745  
2001-10-29 08:12:07 51°13.689 2°55.905 19.814416 0.149388 0.790757  
2001-10-29 08:12:11 51°13.689 2°55.905 19.814416 0.149388 0.790757  
2001-10-29 08:12:16 51°13.689 2°55.905 19.814619 0.149289 0.790222  
2001-10-29 08:12:21 51°13.689 2°55.905 19.815106 0.149191 0.789675  
2001-10-29 08:12:26 51°13.689 2°55.905 19.81324 0.149092 0.789128  
2001-10-29 08:12:31 51°13.689 2°55.905 19.814051 0.148993 0.788581  
2001-10-29 08:12:37 51°13.689 2°55.905 19.815106 0.148993 0.788593  
2001-10-29 08:12:41 51°13.689 2°55.905 19.815106 0.148993 0.788593  
2001-10-29 08:12:47 51°13.689 2°55.905 19.818352 0.148894 0.788034  
2001-10-29 08:12:51 51°13.689 2°55.906 19.819366 0.148795 0.787499  
2001-10-29 08:12:56 51°13.689 2°55.906 19.822693 0.148795 0.787499  
2001-10-29 08:13:01 51°13.689 2°55.906 19.817662 0.148697 0.786952  
2001-10-29 08:13:06 51°13.689 2°55.906 19.817338 0.148598 0.786405  
2001-10-29 08:13:11 51°13.689 2°55.906 19.817338 0.148598 0.786405  
2001-10-29 08:13:17 51°13.689 2°55.906 19.817946 0.148499 0.785859  
2001-10-29 08:13:21 51°13.689 2°55.906 19.822449 0.148499 0.785871  
2001-10-29 08:13:26 51°13.689 2°55.906 19.825735 0.1484 0.785312  
2001-10-29 08:13:31 51°13.689 2°55.906 19.816851 0.148302 0.784777  
2001-10-29 08:13:36 51°13.689 2°55.905 19.819812 0.148302 0.784777  
2001-10-29 08:13:41 51°13.689 2°55.905 19.819812 0.148302 0.784777  
2001-10-29 08:13:47 51°13.689 2°55.905 19.821232 0.148203 0.784218  
2001-10-29 08:13:51 51°13.689 2°55.905 19.819285 0.148104 0.783684  
2001-10-29 08:13:56 51°13.689 2°55.905 19.82468 0.148104 0.783684  
2001-10-29 08:14:01 51°13.689 2°55.905 19.826871 0.148005 0.783149  
2001-10-29 08:14:06 51°13.689 2°55.905 19.825126 0.148005 0.783137  
2001-10-29 08:14:11 51°13.689 2°55.905 19.825126 0.148005 0.783137  
2001-10-29 08:14:17 51°13.688 2°55.904 19.833604 0.147906 0.78259  
2001-10-29 08:14:21 51°13.688 2°55.904 19.842162 0.147906 0.782602  
2001-10-29 08:14:27 51°13.688 2°55.904 19.842892 0.147808 0.782055  
2001-10-29 08:14:31 51°13.688 2°55.904 19.833036 0.147709 0.781497  
2001-10-29 08:14:36 51°13.688 2°55.904 19.828169 0.147709 0.781509  
2001-10-29 08:14:41 51°13.688 2°55.904 19.828169 0.147709 0.781509  
2001-10-29 08:14:46 51°13.688 2°55.904 19.819041 0.14761 0.780962  
2001-10-29 08:14:51 51°13.688 2°55.904 19.823828 0.14761 0.780962  
2001-10-29 08:14:57 51°13.688 2°55.904 19.827844 0.147511 0.780415  
2001-10-29 08:15:01 51°13.688 2°55.904 19.829142 0.147511 0.780427  
2001-10-29 08:15:06 51°13.688 2°55.904 19.829061 0.147413 0.779869  
2001-10-29 08:15:11 51°13.688 2°55.904 19.829061 0.147413 0.779869  
2001-10-29 08:15:16 51°13.688 2°55.904 19.833442 0.147413 0.779881  
2001-10-29 08:15:21 51°13.688 2°55.904 19.833564 0.147314 0.779334  
2001-10-29 08:15:27 51°13.688 2°55.904 19.830805 0.147314 0.779334  
2001-10-29 08:15:31 51°13.688 2°55.904 19.829345 0.147215 0.778788  
2001-10-29 08:15:37 51°13.688 2°55.905 19.839201 0.147215 0.778776  
2001-10-29 08:15:41 51°13.688 2°55.905 19.839201 0.147215 0.778776  
2001-10-29 08:15:46 51°13.688 2°55.905 19.838917 0.147116 0.778241  
2001-10-29 08:15:51 51°13.688 2°55.905 19.842486 0.147116 0.778229  
2001-10-29 08:15:56 51°13.688 2°55.905 19.834375 0.147017 0.777695  
2001-10-29 08:16:01 51°13.688 2°55.905 19.840499 0.147017 0.777695  
2001-10-29 08:16:07 51°13.688 2°55.906 19.836119 0.146919 0.777148  
2001-10-29 08:16:11 51°13.688 2°55.906 19.836119 0.146919 0.777148  
2001-10-29 08:16:16 51°13.688 2°55.905 19.840053 0.146919 0.777148  
2001-10-29 08:16:21 51°13.688 2°55.905 19.841432 0.146919 0.77716  
2001-10-29 08:16:26 51°13.688 2°55.905 19.843013 0.14682 0.776613  
2001-10-29 08:16:31 51°13.688 2°55.905 19.840377 0.14682 0.776602  
2001-10-29 08:16:37 51°13.688 2°55.905 19.83908 0.14682 0.776613  
2001-10-29 08:16:40 51°13.688 2°55.905 19.83908 0.14682 0.776613  
2001-10-29 08:16:43 51°13.688 2°55.905 19.83908 0.146721 0.776079  
2001-10-29 08:16:46 51°13.688 2°55.905 19.84204 0.146721 0.776067  
2001-10-29 08:16:51 51°13.688 2°55.905 19.826262 0.146622 0.775521  
2001-10-29 08:16:57 51°13.688 2°55.905 19.834375 0.146622 0.775521  
2001-10-29 08:17:02 51°13.688 2°55.905 19.841716 0.146622 0.775532  
2001-10-29 08:17:07 51°13.688 2°55.905 19.841716 0.146622 0.775532  
2001-10-29 08:17:12 51°13.688 2°55.905 19.841635 0.146524 0.774974  
2001-10-29 08:17:17 51°13.688 2°55.905 19.836646 0.146524 0.774986  
2001-10-29 08:17:22 51°13.688 2°55.905 19.839363 0.146425 0.774428  
2001-10-29 08:17:26 51°13.688 2°55.905 19.842567 0.146425 0.774428  
2001-10-29 08:17:31 51°13.688 2°55.905 19.849745 0.146425 0.77444  
2001-10-29 08:17:37 51°13.688 2°55.905 19.849745 0.146425 0.77444  
2001-10-29 08:17:42 51°13.688 2°55.905 19.830968 0.146326 0.773893  
2001-10-29 08:17:47 51°13.688 2°55.905 19.843865 0.146326 0.773893  
2001-10-29 08:17:52 51°13.688 2°55.905 19.839769 0.146326 0.773893  
2001-10-29 08:17:57 51°13.688 2°55.905 19.86045 0.146227 0.773359  
2001-10-29 08:18:02 51°13.687 2°55.905 19.851976 0.146227 0.773359  
2001-10-29 08:18:06 51°13.688 2°55.905 19.851976 0.146227 0.773359  
2001-10-29 08:18:12 51°13.688 2°55.905 19.839323 0.146227 0.773347  
2001-10-29 08:18:16 51°13.688 2°55.905 19.837538 0.146128 0.772812  
2001-10-29 08:18:22 51°13.687 2°55.905 19.852057 0.146128 0.772801  
2001-10-29 08:18:27 51°13.688 2°55.905 19.845893 0.146128 0.772812  
2001-10-29 08:18:32 51°13.688 2°55.905 19.848853 0.146128 0.772801  
2001-10-29 08:18:37 51°13.688 2°55.905 19.848853 0.146128 0.772801  
2001-10-29 08:18:42 51°13.688 2°55.905 19.848488 0.14603 0.772266  
2001-10-29 08:18:46 51°13.688 2°55.905 19.848569 0.14603 0.772266  
2001-10-29 08:18:52 51°13.688 2°55.905 19.843946 0.14603 0.772266  
2001-10-29 08:18:57 51°13.688 2°55.905 19.844149 0.145931 0.77172  
2001-10-29 08:19:02 51°13.688 2°55.905 19.839688 0.145931 0.77172  
2001-10-29 08:19:06 51°13.688 2°55.905 19.839688 0.145931 0.77172  
2001-10-29 08:19:11 51°13.688 2°55.905 19.841513 0.145931 0.771732  
2001-10-29 08:19:17 51°13.688 2°55.905 19.842405 0.145832 0.771185  
2001-10-29 08:19:22 51°13.688 2°55.905 19.843703 0.145832 0.771174  
2001-10-29 08:19:26 51°13.688 2°55.905 19.854855 0.145832 0.771185  
2001-10-29 08:19:32 51°13.688 2°55.904 19.858706 0.145832 0.771185  
2001-10-29 08:19:37 51°13.688 2°55.904 19.858706 0.145832 0.771185  
2001-10-29 08:19:42 51°13.688 2°55.904 19.867585 0.145733 0.770639  
2001-10-29 08:19:46 51°13.688 2°55.904 19.866694 0.145733 0.770651  
2001-10-29 08:19:52 51°13.688 2°55.904 19.867423 0.145733 0.770651  
2001-10-29 08:19:57 51°13.688 2°55.904 19.849543 0.145733 0.770651  
2001-10-29 08:20:02 51°13.688 2°55.904 19.840296 0.145635 0.770105  
2001-10-29 08:20:07 51°13.688 2°55.904 19.840296 0.145635 0.770105  
2001-10-29 08:20:12 51°13.688 2°55.904 19.841797 0.145635 0.770105  
2001-10-29 08:20:17 51°13.688 2°55.904 19.860774 0.145635 0.770105  
2001-10-29 08:20:22 51°13.688 2°55.904 19.846501 0.145635 0.770116  
2001-10-29 08:20:26 51°13.688 2°55.904 19.851043 0.145536 0.76957  
2001-10-29 08:20:31 51°13.688 2°55.904 19.846339 0.145536 0.769558  
2001-10-29 08:20:37 51°13.688 2°55.904 19.846339 0.145536 0.769558  
2001-10-29 08:20:42 51°13.688 2°55.904 19.846136 0.145536 0.76957  
2001-10-29 08:20:47 51°13.688 2°55.904 19.846217 0.145536 0.76957  
2001-10-29 08:20:52 51°13.688 2°55.904 19.853881 0.145437 0.769035  
2001-10-29 08:20:57 51°13.688 2°55.904 19.8538 0.145437 0.769024  
2001-10-29 08:21:02 51°13.688 2°55.904 19.851002 0.145437 0.769035  
2001-10-29 08:21:06 51°13.688 2°55.905 19.851002 0.145437 0.769035  
2001-10-29 08:21:12 51°13.688 2°55.904 19.851813 0.145338 0.768489  
2001-10-29 08:21:17 51°13.688 2°55.904 19.85826 0.145338 0.768489  
2001-10-29 08:21:22 51°13.688 2°55.905 19.860855 0.145338 0.768489  
2001-10-29 08:21:26 51°13.688 2°55.904 19.861585 0.145338 0.768489  
2001-10-29 08:21:32 51°13.688 2°55.905 19.857571 0.145338 0.768489  
2001-10-29 08:21:37 51°13.688 2°55.905 19.857571 0.145338 0.768489  
2001-10-29 08:21:42 51°13.688 2°55.905 19.868518 0.145239 0.767955  
2001-10-29 08:21:47 51°13.688 2°55.905 19.869248 0.145239 0.767943  
2001-10-29 08:21:52 51°13.688 2°55.905 19.869775 0.145239 0.767966  
2001-10-29 08:21:57 51°13.688 2°55.905 19.866207 0.145239 0.767955  
2001-10-29 08:22:02 51°13.687 2°55.905 19.867829 0.145141 0.767409  
2001-10-29 08:22:06 51°13.687 2°55.905 19.867829 0.145141 0.767409  
2001-10-29 08:22:12 51°13.687 2°55.904 19.869572 0.145141 0.76742  
2001-10-29 08:22:17 51°13.687 2°55.904 19.871518 0.145141 0.76742  
2001-10-29 08:22:22 51°13.687 2°55.904 19.879179 0.145141 0.76742  
2001-10-29 08:22:26 51°13.687 2°55.904 19.876382 0.145042 0.766874  
2001-10-29 08:22:31 51°13.687 2°55.904 19.849745 0.145042 0.766874  
2001-10-29 08:22:36 51°13.687 2°55.904 19.849745 0.145042 0.766874  
2001-10-29 08:22:42 51°13.687 2°55.904 19.854611 0.145042 0.766886  
2001-10-29 08:22:47 51°13.687 2°55.904 19.853192 0.145042 0.766886  
2001-10-29 08:22:52 51°13.687 2°55.904 19.860936 0.145042 0.766886  
2001-10-29 08:22:57 51°13.687 2°55.904 19.866775 0.144943 0.76634  
2001-10-29 08:23:02 51°13.687 2°55.904 19.870626 0.144943 0.766351  
2001-10-29 08:23:07 51°13.687 2°55.904 19.870626 0.144943 0.766351  
2001-10-29 08:23:12 51°13.687 2°55.903 19.871234 0.144943 0.76634  
2001-10-29 08:23:17 51°13.687 2°55.904 19.871234 0.144943 0.766351  
2001-10-29 08:23:22 51°13.687 2°55.904 19.866977 0.144844 0.765805  
2001-10-29 08:23:26 51°13.687 2°55.904 19.871072 0.144844 0.765805  
2001-10-29 08:23:32 51°13.687 2°55.904 19.875774 0.144844 0.765805  
2001-10-29 08:23:37 51°13.687 2°55.904 19.875774 0.144844 0.765805  
2001-10-29 08:23:42 51°13.687 2°55.904 19.884043 0.144844 0.765805  
2001-10-29 08:23:47 51°13.687 2°55.904 19.883314 0.144844 0.765805  
2001-10-29 08:23:51 51°13.687 2°55.905 19.880233 0.144844 0.765805  
2001-10-29 08:23:57 51°13.687 2°55.905 19.87622 0.144746 0.765271  
2001-10-29 08:24:02 51°13.687 2°55.905 19.879179 0.144746 0.765282  
2001-10-29 08:24:07 51°13.687 2°55.905 19.879179 0.144746 0.765282  
2001-10-29 08:24:12 51°13.687 2°55.905 19.882057 0.144746 0.765271  
2001-10-29 08:24:17 51°13.687 2°55.905 19.888826 0.144746 0.765282  
2001-10-29 08:24:22 51°13.687 2°55.905 19.890933 0.144746 0.765271  
2001-10-29 08:24:27 51°13.687 2°55.905 19.886394 0.144746 0.765282  
2001-10-29 08:24:32 51°13.687 2°55.905 19.886556 0.144647 0.764736  
2001-10-29 08:24:37 51°13.687 2°55.905 19.886556 0.144647 0.764736  
2001-10-29 08:24:42 51°13.687 2°55.905 19.883962 0.144647 0.764748  
2001-10-29 08:24:47 51°13.687 2°55.905 19.882746 0.144647 0.764736  
2001-10-29 08:24:51 51°13.687 2°55.905 19.881003 0.144647 0.764748  
2001-10-29 08:24:56 51°13.687 2°55.905 19.887974 0.144548 0.764202  
2001-10-29 08:25:02 51°13.687 2°55.905 19.890041 0.144548 0.764202  
2001-10-29 08:25:07 51°13.687 2°55.905 19.890041 0.144548 0.764202  
2001-10-29 08:25:12 51°13.688 2°55.905 19.889028 0.144548 0.764202  
2001-10-29 08:25:17 51°13.688 2°55.905 19.88761 0.144548 0.764213  
2001-10-29 08:25:22 51°13.688 2°55.905 19.89535 0.144548 0.76419  
2001-10-29 08:25:27 51°13.688 2°55.905 19.897984 0.144449 0.763667  
2001-10-29 08:25:32 51°13.688 2°55.905 19.894621 0.144449 0.763656  
2001-10-29 08:25:37 51°13.688 2°55.905 19.894621 0.144449 0.763656  
2001-10-29 08:25:42 51°13.688 2°55.905 19.891987 0.144449 0.763667  
2001-10-29 08:25:47 51°13.688 2°55.905 19.887529 0.144449 0.763667  
2001-10-29 08:25:52 51°13.688 2°55.905 19.886637 0.144449 0.763679  
2001-10-29 08:25:57 51°13.688 2°55.905 19.887448 0.144449 0.763679  
2001-10-29 08:26:02 51°13.687 2°55.905 19.88534 0.144449 0.763679  
2001-10-29 08:26:06 51°13.687 2°55.905 19.88534 0.144449 0.763679  
2001-10-29 08:26:12 51°13.687 2°55.906 19.885259 0.14435 0.763133  
2001-10-29 08:26:17 51°13.687 2°55.906 19.88611 0.14435 0.763133  
2001-10-29 08:26:22 51°13.687 2°55.906 19.895877 0.14435 0.763133  
2001-10-29 08:26:27 51°13.687 2°55.906 19.900456 0.14435 0.763145  
2001-10-29 08:26:31 51°13.687 2°55.906 19.896161 0.14435 0.763145  
2001-10-29 08:26:37 51°13.688 2°55.906 19.896161 0.14435 0.763145  
2001-10-29 08:26:42 51°13.688 2°55.906 19.890041 0.144252 0.762599  
2001-10-29 08:26:46 51°13.688 2°55.906 19.896647 0.14435 0.763156  
2001-10-29 08:26:52 51°13.688 2°55.906 19.898511 0.144252 0.76261  
2001-10-29 08:26:57 51°13.688 2°55.906 19.897093 0.144252 0.76261  
2001-10-29 08:27:02 51°13.688 2°55.906 19.897741 0.144252 0.76261  
2001-10-29 08:27:07 51°13.687 2°55.906 19.897741 0.144252 0.76261  
2001-10-29 08:27:11 51°13.688 2°55.906 19.893121 0.144252 0.762622  
2001-10-29 08:27:17 51°13.688 2°55.906 19.895431 0.144252 0.762622  
2001-10-29 08:27:22 51°13.688 2°55.906 19.901915 0.144252 0.762622  
2001-10-29 08:27:27 51°13.688 2°55.906 19.906939 0.144153 0.762087  
2001-10-29 08:27:32 51°13.688 2°55.906 19.908682 0.144153 0.762087  
2001-10-29 08:27:37 51°13.688 2°55.906 19.908682 0.144153 0.762087  
2001-10-29 08:27:42 51°13.687 2°55.906 19.911194 0.144153 0.762087  
2001-10-29 08:27:47 51°13.687 2°55.906 19.909573 0.144153 0.762087  
2001-10-29 08:27:51 51°13.687 2°55.906 19.907709 0.144153 0.762087  
2001-10-29 08:27:57 51°13.687 2°55.906 19.905643 0.144054 0.761541  
2001-10-29 08:28:02 51°13.688 2°55.906 19.908439 0.144153 0.762099  
2001-10-29 08:28:07 51°13.688 2°55.906 19.908439 0.144153 0.762099  
2001-10-29 08:28:12 51°13.688 2°55.906 19.91087 0.144054 0.761564  
2001-10-29 08:28:17 51°13.688 2°55.906 19.912814 0.144054 0.761553  
2001-10-29 08:28:22 51°13.688 2°55.906 19.902604 0.144054 0.761564  
2001-10-29 08:28:27 51°13.688 2°55.906 19.911153 0.144054 0.761564  
2001-10-29 08:28:31 51°13.688 2°55.906 19.924522 0.144054 0.761564  
2001-10-29 08:28:37 51°13.688 2°55.906 19.924522 0.144054 0.761564  
2001-10-29 08:28:42 51°13.688 2°55.906 19.925413 0.144054 0.761564  
2001-10-29 08:28:46 51°13.688 2°55.906 19.927236 0.144054 0.761576  
2001-10-29 08:28:52 51°13.687 2°55.906 19.922092 0.144054 0.761576  
2001-10-29 08:28:56 51°13.687 2°55.906 19.907547 0.143955 0.76103  
2001-10-29 08:29:02 51°13.687 2°55.905 19.922375 0.143955 0.761041  
2001-10-29 08:29:06 51°13.687 2°55.905 19.922375 0.143955 0.761041  
2001-10-29 08:29:11 51°13.687 2°55.906 19.92359 0.143955 0.761041  
2001-10-29 08:29:17 51°13.687 2°55.906 19.918527 0.143955 0.761053  
2001-10-29 08:29:22 51°13.687 2°55.905 19.917068 0.143955 0.761041  
2001-10-29 08:29:27 51°13.687 2°55.905 19.924279 0.143955 0.761041  
2001-10-29 08:29:32 51°13.687 2°55.905 19.931125 0.143955 0.761041  
2001-10-29 08:29:37 51°13.687 2°55.905 19.931125 0.143955 0.761041  
2001-10-29 08:29:42 51°13.687 2°55.905 19.92999 0.143857 0.760507  
2001-10-29 08:29:47 51°13.687 2°55.906 19.930274 0.143857 0.760518  
2001-10-29 08:29:52 51°13.687 2°55.906 19.928168 0.143857 0.760518  
2001-10-29 08:29:57 51°13.687 2°55.906 19.925292 0.143857 0.760507  
2001-10-29 08:30:02 51°13.687 2°55.906 19.924077 0.143857 0.76053  
2001-10-29 08:30:07 51°13.687 2°55.906 19.924077 0.143857 0.76053  
2001-10-29 08:30:11 51°13.687 2°55.906 19.921768 0.143857 0.76053  
2001-10-29 08:30:17 51°13.687 2°55.905 19.917554 0.143857 0.76053  
2001-10-29 08:30:22 51°13.687 2°55.906 19.927115 0.143857 0.76053  
2001-10-29 08:30:26 51°13.687 2°55.905 19.93315 0.143758 0.759984  
2001-10-29 08:30:31 51°13.687 2°55.906 19.922861 0.143758 0.759984  
2001-10-29 08:30:37 51°13.687 2°55.905 19.922861 0.143758 0.759984  
2001-10-29 08:30:42 51°13.687 2°55.905 19.921727 0.143758 0.759984  
2001-10-29 08:30:46 51°13.687 2°55.905 19.921241 0.143758 0.759995  
2001-10-29 08:30:52 51°13.687 2°55.905 19.93234 0.143758 0.759995  
2001-10-29 08:30:57 51°13.687 2°55.905 19.934041 0.143758 0.760007  
2001-10-29 08:31:02 51°13.687 2°55.905 19.93477 0.143758 0.760007  
2001-10-29 08:31:07 51°13.687 2°55.905 19.93477 0.143758 0.760007  
2001-10-29 08:31:12 51°13.688 2°55.906 19.934446 0.143758 0.760007  
2001-10-29 08:31:17 51°13.688 2°55.906 19.935377 0.143659 0.759473  
2001-10-29 08:31:22 51°13.687 2°55.906 19.935904 0.143659 0.759473  
2001-10-29 08:31:27 51°13.687 2°55.906 19.937807 0.143659 0.759473  
2001-10-29 08:31:32 51°13.687 2°55.906 19.94125 0.143659 0.759484  
2001-10-29 08:31:37 51°13.687 2°55.906 19.94125 0.143659 0.759484  
2001-10-29 08:31:42 51°13.687 2°55.906 19.947446 0.143659 0.759484  
2001-10-29 08:31:47 51°13.687 2°55.906 19.943032 0.143659 0.759495  
2001-10-29 08:31:52 51°13.687 2°55.906 19.949592 0.143659 0.759484  
2001-10-29 08:31:57 51°13.687 2°55.906 19.946433 0.143659 0.759495  
2001-10-29 08:32:02 51°13.687 2°55.906 19.953884 0.143659 0.759495  
2001-10-29 08:32:07 51°13.687 2°55.906 19.953884 0.143659 0.759495  
2001-10-29 08:32:11 51°13.687 2°55.906 19.941452 0.14356 0.758961  
2001-10-29 08:32:17 51°13.688 2°55.906 19.951455 0.14356 0.758972  
2001-10-29 08:32:22 51°13.688 2°55.906 19.945057 0.14356 0.758972  
2001-10-29 08:32:26 51°13.688 2°55.906 19.944166 0.14356 0.758972  
2001-10-29 08:32:32 51°13.688 2°55.906 19.947567 0.14356 0.758972  
2001-10-29 08:32:37 51°13.688 2°55.906 19.947567 0.14356 0.758972  
2001-10-29 08:32:42 51°13.688 2°55.906 19.95186 0.14356 0.758972  
2001-10-29 08:32:47 51°13.688 2°55.906 19.955261 0.143462 0.758427  
2001-10-29 08:32:52 51°13.688 2°55.906 19.94534 0.143462 0.75845  
2001-10-29 08:32:57 51°13.688 2°55.906 19.948134 0.143462 0.75845  
2001-10-29 08:33:02 51°13.688 2°55.906 19.956233 0.143462 0.75845  
2001-10-29 08:33:06 51°13.688 2°55.906 19.956233 0.143462 0.75845  
2001-10-29 08:33:11 51°13.688 2°55.906 19.95684 0.143462 0.75845  
2001-10-29 08:33:16 51°13.688 2°55.906 19.954411 0.143462 0.75845  
2001-10-29 08:33:22 51°13.688 2°55.906 19.955099 0.143462 0.758461  
2001-10-29 08:33:27 51°13.688 2°55.906 19.956921 0.143462 0.758472  
2001-10-29 08:33:32 51°13.688 2°55.906 19.963237 0.143462 0.758461  
2001-10-29 08:33:37 51°13.688 2°55.906 19.963237 0.143462 0.758461  
2001-10-29 08:33:42 51°13.688 2°55.906 19.961253 0.143462 0.758472  
2001-10-29 08:33:59 51°13.688 2°55.906 19.965747 0.143363 0.757938  
2001-10-29 08:34:13 51°13.688 2°55.906 19.970686 0.143363 0.757949  
2001-10-29 08:34:18 51°13.688 2°55.906 19.975139 0.143363 0.757949  
2001-10-29 08:34:23 51°13.689 2°55.906 19.981979 0.143363 0.757961  
2001-10-29 08:34:28 51°13.688 2°55.906 19.978094 0.143363 0.757961  
2001-10-29 08:34:33 51°13.688 2°55.906 19.954735 0.143363 0.757961  
2001-10-29 08:34:38 51°13.688 2°55.906 19.961658 0.143363 0.757972  
2001-10-29 08:34:43 51°13.688 2°55.906 19.961658 0.143363 0.757972  
2001-10-29 08:34:48 51°13.688 2°55.906 19.972265 0.143363 0.757972  
2001-10-29 08:34:53 51°13.688 2°55.906 19.983558 0.143264 0.757438  
2001-10-29 08:34:58 51°13.688 2°55.906 19.96931 0.143363 0.757984  
2001-10-29 08:35:03 51°13.688 2°55.906 19.953155 0.143363 0.757995  
2001-10-29 08:35:07 51°13.688 2°55.906 19.966719 0.143264 0.757449  
2001-10-29 08:35:13 51°13.688 2°55.906 19.966719 0.143264 0.757449  
2001-10-29 08:35:18 51°13.688 2°55.906 19.965221 0.143264 0.757449  
2001-10-29 08:35:23 51°13.688 2°55.906 19.967407 0.143264 0.757461  
2001-10-29 08:35:28 51°13.688 2°55.906 19.970605 0.143264 0.757449  
2001-10-29 08:35:34 51°13.688 2°55.906 19.982667 0.143264 0.757472  
2001-10-29 08:35:38 51°13.688 2°55.906 19.974329 0.143264 0.757461  
2001-10-29 08:35:43 51°13.688 2°55.906 19.974329 0.143264 0.757461  
2001-10-29 08:35:48 51°13.688 2°55.906 19.97862 0.143264 0.757484  
2001-10-29 08:35:53 51°13.688 2°55.906 19.982141 0.143264 0.757472  
2001-10-29 08:35:58 51°13.688 2°55.906 19.980927 0.143264 0.757484  
2001-10-29 08:36:03 51°13.688 2°55.906 19.981008 0.143165 0.756938  
2001-10-29 08:36:08 51°13.688 2°55.906 19.97522 0.143165 0.756938  
2001-10-29 08:36:13 51°13.688 2°55.906 19.97522 0.143165 0.756938  
2001-10-29 08:36:18 51°13.688 2°55.906 19.979713 0.143165 0.756938  
2001-10-29 08:36:23 51°13.688 2°55.906 19.979187 0.143165 0.756938  
2001-10-29 08:36:28 51°13.688 2°55.906 19.977284 0.143165 0.756949  
2001-10-29 08:36:33 51°13.688 2°55.906 19.981291 0.143165 0.756949  
2001-10-29 08:36:38 51°13.688 2°55.906 19.990762 0.143165 0.756949  
2001-10-29 08:36:43 51°13.688 2°55.906 19.990762 0.143165 0.756949  
2001-10-29 08:36:48 51°13.688 2°55.906 19.993352 0.143165 0.756949  
2001-10-29 08:36:53 51°13.688 2°55.906 19.993271 0.143165 0.756949  
2001-10-29 08:36:58 51°13.688 2°55.906 19.997156 0.143165 0.756961  
2001-10-29 08:37:03 51°13.688 2°55.906 19.994364 0.143165 0.756949  
2001-10-29 08:37:08 51°13.688 2°55.906 19.994566 0.143165 0.756961  
2001-10-29 08:37:13 51°13.688 2°55.906 19.994566 0.143165 0.756961  
2001-10-29 08:37:18 51°13.688 2°55.906 20.001081 0.143066 0.756415  
2001-10-29 08:37:23 51°13.688 2°55.906 19.994485 0.143165 0.756961  
2001-10-29 08:37:27 51°13.688 2°55.906 19.99752 0.143066 0.756426  
2001-10-29 08:37:33 51°13.688 2°55.906 19.998896 0.143066 0.756415  
2001-10-29 08:37:38 51°13.687 2°55.906 20.000231 0.143066 0.756426  
2001-10-29 08:37:43 51°13.687 2°55.906 20.000231 0.143066 0.756426  
2001-10-29 08:37:47 51°13.687 2°55.906 19.986674 0.143066 0.756426  
2001-10-29 08:37:53 51°13.687 2°55.906 19.99489 0.143066 0.756438  
2001-10-29 08:37:58 51°13.687 2°55.906 20.006017 0.143066 0.756438  
2001-10-29 08:38:03 51°13.687 2°55.906 19.995618 0.143066 0.756438  
2001-10-29 08:38:08 51°13.687 2°55.906 19.999017 0.143066 0.756438  
2001-10-29 08:38:13 51°13.687 2°55.906 19.999017 0.143066 0.756438  
2001-10-29 08:38:18 51°13.687 2°55.906 20.001445 0.143066 0.756449  
2001-10-29 08:38:23 51°13.687 2°55.906 19.997358 0.143066 0.756438  
2001-10-29 08:38:28 51°13.687 2°55.906 19.996387 0.143066 0.756449  
2001-10-29 08:38:33 51°13.687 2°55.906 19.996994 0.143066 0.756449  
2001-10-29 08:38:38 51°13.687 2°55.906 20.005775 0.143066 0.756449  
2001-10-29 08:38:43 51°13.687 2°55.906 20.005775 0.143066 0.756449  
2001-10-29 08:38:48 51°13.687 2°55.906 20.003954 0.143066 0.75646  
2001-10-29 08:38:53 51°13.687 2°55.906 20.00626 0.142968 0.755914  
2001-10-29 08:38:58 51°13.687 2°55.906 20.022038 0.142968 0.755914  
2001-10-29 08:39:03 51°13.687 2°55.906 20.02042 0.142968 0.755926  
2001-10-29 08:39:07 51°13.687 2°55.906 20.007555 0.142968 0.755926  
2001-10-29 08:39:13 51°13.687 2°55.906 20.007555 0.142968 0.755926  
2001-10-29 08:39:18 51°13.687 2°55.906 20.006624 0.142968 0.755926  
2001-10-29 08:39:23 51°13.687 2°55.906 20.013664 0.142968 0.755926  
2001-10-29 08:39:27 51°13.687 2°55.906 20.013988 0.142968 0.755926  
2001-10-29 08:39:34 51°13.687 2°55.906 20.01686 0.142968 0.755914  
2001-10-29 08:39:38 51°13.687 2°55.906 20.017871 0.142968 0.755937  
2001-10-29 08:39:43 51°13.687 2°55.906 20.017871 0.142968 0.755937  
2001-10-29 08:39:48 51°13.687 2°55.906 20.032838 0.142968 0.755926  
2001-10-29 08:39:53 51°13.687 2°55.906 20.023697 0.142968 0.755937  
2001-10-29 08:39:58 51°13.687 2°55.906 20.018478 0.142968 0.755937  
2001-10-29 08:40:03 51°13.687 2°55.906 35.950269 0.142968 0.755937  
2001-10-29 08:40:08 51°13.687 2°55.906 21.88141 0.142968 0.755937  
2001-10-29 08:40:13 51°13.687 2°55.906 21.88141 0.142968 0.755937  
2001-10-29 08:40:18 51°13.687 2°55.906 21.868445 0.142869 0.755403  
2001-10-29 08:40:23 51°13.687 2°55.905 21.588115 0.142869 0.755391  
2001-10-29 08:40:28 51°13.687 2°55.906 21.951673 0.142869 0.755403  
2001-10-29 08:40:34 51°13.687 2°55.906 21.983906 0.142869 0.755403  
2001-10-29 08:40:38 51°13.687 2°55.906 22.526841 0.142869 0.755403  
2001-10-29 08:40:43 51°13.687 2°55.906 22.526841 0.142869 0.755403  
2001-10-29 08:40:48 51°13.687 2°55.905 22.122392 0.142869 0.755403  
2001-10-29 08:40:53 51°13.687 2°55.905 21.698973 0.142869 0.755403  
2001-10-29 08:40:58 51°13.687 2°55.905 21.735782 0.142869 0.755403  
2001-10-29 08:41:03 51°13.687 2°55.905 21.739217 0.142869 0.755403  
2001-10-29 08:41:08 51°13.687 2°55.905 22.352701 0.142869 0.755414  
2001-10-29 08:41:13 51°13.687 2°55.905 22.352701 0.142869 0.755414  
2001-10-29 08:41:18 51°13.687 2°55.905 22.63832 0.142869 0.755414  
2001-10-29 08:41:23 51°13.688 2°55.905 22.213601 0.142869 0.755414  
2001-10-29 08:41:27 51°13.688 2°55.905 22.155451 0.142869 0.755414  
2001-10-29 08:41:33 51°13.688 2°55.905 22.217876 0.142869 0.755414  
2001-10-29 08:41:38 51°13.688 2°55.906 22.283576 0.142869 0.755426  
2001-10-29 08:41:43 51°13.688 2°55.906 22.283576 0.142869 0.755426  
2001-10-29 08:41:48 51°13.688 2°55.906 21.876642 0.142869 0.755414  
2001-10-29 08:41:53 51°13.688 2°55.906 21.916826 0.142869 0.755426  
2001-10-29 08:41:58 51°13.687 2°55.906 21.786462 0.142869 0.755426  
2001-10-29 08:42:03 51°13.687 2°55.906 21.975406 0.142869 0.755426  
2001-10-29 08:42:08 51°13.687 2°55.906 22.162006 0.14277 0.75488  
2001-10-29 08:42:13 51°13.687 2°55.906 22.162006 0.14277 0.75488  
2001-10-29 08:42:18 51°13.687 2°55.906 22.583831 0.14277 0.754891  
2001-10-29 08:42:23 51°13.687 2°55.906 22.106446 0.14277 0.75488  
2001-10-29 08:42:28 51°13.688 2°55.906 22.270684 0.14277 0.754891  
2001-10-29 08:42:33 51°13.688 2°55.906 22.179352 0.14277 0.75488  
2001-10-29 08:42:38 51°13.687 2°55.906 21.954743 0.14277 0.754891  
2001-10-29 08:42:43 51°13.687 2°55.906 21.954743 0.14277 0.754891  
2001-10-29 08:42:48 51°13.687 2°55.906 22.327683 0.14277 0.754891  
2001-10-29 08:42:53 51°13.687 2°55.906 22.069121 0.14277 0.754891  
2001-10-29 08:42:58 51°13.687 2°55.906 22.070025 0.14277 0.754891  
2001-10-29 08:43:03 51°13.687 2°55.906 22.293685 0.14277 0.754902  
2001-10-29 08:43:08 51°13.687 2°55.906 21.976154 0.14277 0.754891  
2001-10-29 08:43:13 51°13.687 2°55.906 21.976154 0.14277 0.754891  
2001-10-29 08:43:18 51°13.687 2°55.906 22.170758 0.14277 0.754891  
2001-10-29 08:43:23 51°13.687 2°55.906 21.821255 0.14277 0.754891  
2001-10-29 08:43:27 51°13.687 2°55.906 22.050726 0.14277 0.754891  
2001-10-29 08:43:33 51°13.687 2°55.906 22.215366 0.14277 0.754914  
2001-10-29 08:43:38 51°13.687 2°55.906 21.800823 0.14277 0.754902  
2001-10-29 08:43:43 51°13.687 2°55.906 21.800823 0.14277 0.754902  
2001-10-29 08:43:48 51°13.687 2°55.906 21.532779 0.14277 0.754891  
2001-10-29 08:43:53 51°13.687 2°55.906 21.379452 0.14277 0.754902  
2001-10-29 08:43:58 51°13.687 2°55.906 21.551704 0.14277 0.754902  
2001-10-29 08:44:03 51°13.687 2°55.906 21.225117 0.142671 0.754345  
2001-10-29 08:44:08 51°13.687 2°55.906 21.585187 0.142671 0.754357  
2001-10-29 08:44:13 51°13.688 2°55.906 21.585187 0.142671 0.754357  
2001-10-29 08:44:18 51°13.688 2°55.906 21.616834 0.142671 0.754345  
2001-10-29 08:44:23 51°13.688 2°55.906 21.261814 0.142671 0.754357  
2001-10-29 08:44:27 51°13.688 2°55.906 21.526404 0.142671 0.754345  
2001-10-29 08:44:33 51°13.688 2°55.906 21.286971 0.142671 0.754345  
2001-10-29 08:44:38 51°13.688 2°55.906 21.401234 0.142671 0.754345  
2001-10-29 08:44:43 51°13.688 2°55.906 21.401234 0.142671 0.754345  
2001-10-29 08:44:49 51°13.688 2°55.906 21.725594 0.142671 0.754345  
2001-10-29 08:44:53 51°13.688 2°55.906 21.954074 0.142671 0.754334  
2001-10-29 08:44:58 51°13.688 2°55.906 21.503986 0.142671 0.754345  
2001-10-29 08:45:03 51°13.688 2°55.906 21.700988 0.142671 0.754334  
2001-10-29 08:45:08 51°13.688 2°55.906 22.013135 0.142671 0.754334  
2001-10-29 08:45:14 51°13.688 2°55.906 22.013135 0.142671 0.754334  
2001-10-29 08:45:18 51°13.688 2°55.906 21.639335 0.142671 0.754334  
2001-10-29 08:45:23 51°13.687 2°55.906 21.480452 0.142671 0.754334  
2001-10-29 08:45:28 51°13.687 2°55.906 22.364835 0.142671 0.754334  
2001-10-29 08:45:33 51°13.687 2°55.906 21.933956 0.142671 0.754334  
2001-10-29 08:45:38 51°13.687 2°55.906 21.910288 0.142671 0.754322  
2001-10-29 08:45:43 51°13.687 2°55.906 21.910288 0.142671 0.754322  
2001-10-29 08:45:47 51°13.687 2°55.906 21.596226 0.142671 0.754322  
2001-10-29 08:45:53 51°13.687 2°55.906 21.656651 0.142671 0.754334  
2001-10-29 08:45:58 51°13.687 2°55.906 22.252537 0.142573 0.753788  
2001-10-29 08:46:03 51°13.687 2°55.906 21.799245 0.142573 0.753799  
2001-10-29 08:46:07 51°13.687 2°55.907 22.087472 0.142671 0.754334  
2001-10-29 08:46:13 51°13.687 2°55.907 22.087472 0.142671 0.754334  
2001-10-29 08:46:18 51°13.687 2°55.907 21.788632 0.142573 0.753788  
2001-10-29 08:46:23 51°13.687 2°55.907 22.207992 0.142573 0.753788  
2001-10-29 08:46:28 51°13.687 2°55.907 21.952893 0.142573 0.753788  
2001-10-29 08:46:33 51°13.686 2°55.906 21.890236 0.142573 0.753799  
2001-10-29 08:46:38 51°13.686 2°55.906 21.767758 0.142573 0.753799  
2001-10-29 08:46:43 51°13.686 2°55.906 21.767758 0.142573 0.753799  
2001-10-29 08:46:48 51°13.686 2°55.906 21.984456 0.142573 0.753788  
2001-10-29 08:46:53 51°13.686 2°55.906 22.232346 0.142573 0.753788  
2001-10-29 08:46:58 51°13.685 2°55.906 21.750785 0.142573 0.753788  
2001-10-29 08:47:03 51°13.685 2°55.906 22.404901 0.142573 0.753788  
2001-10-29 08:47:08 51°13.685 2°55.905 21.740204 0.142573 0.753788  
2001-10-29 08:47:13 51°13.685 2°55.905 21.740204 0.142573 0.753788  
2001-10-29 08:47:18 51°13.685 2°55.905 22.003183 0.142573 0.753788  
2001-10-29 08:47:23 51°13.685 2°55.905 21.975406 0.142573 0.753799  
2001-10-29 08:47:27 51°13.685 2°55.904 21.883459 0.142573 0.753788  
2001-10-29 08:47:34 51°13.686 2°55.903 22.143046 0.142573 0.753788  
2001-10-29 08:47:38 51°13.686 2°55.902 21.942776 0.142573 0.753788  
2001-10-29 08:47:43 51°13.686 2°55.9 21.942776 0.142573 0.753788  
2001-10-29 08:47:48 51°13.687 2°55.897 22.046126 0.142573 0.753788  
2001-10-29 08:47:53 51°13.687 2°55.895 21.953759 0.142573 0.753799  
2001-10-29 08:47:58 51°13.688 2°55.892 21.948208 0.142573 0.753788  
2001-10-29 08:48:04 51°13.688 2°55.887 21.686172 0.142573 0.753788  
2001-10-29 08:48:09 51°13.689 2°55.884 22.09639 0.142573 0.753788  
2001-10-29 08:48:14 51°13.69 2°55.879 22.09639 0.142573 0.753788  
2001-10-29 08:48:19 51°13.69 2°55.874 21.85059 0.142573 0.753799  
2001-10-29 08:48:24 51°13.691 2°55.868 22.247127 0.142573 0.753776  
2001-10-29 08:48:29 51°13.691 2°55.863 22.150152 0.142573 0.753788  
2001-10-29 08:48:34 51°13.692 2°55.856 22.123099 0.142573 0.753776  
2001-10-29 08:48:39 51°13.692 2°55.85 21.665228 0.142474 0.753242  
2001-10-29 08:48:44 51°13.692 2°55.843 21.665228 0.142474 0.753242  
2001-10-29 08:48:49 51°13.693 2°55.836 21.909933 0.142474 0.753242  
2001-10-29 08:48:54 51°13.693 2°55.829 22.436461 0.142474 0.753231  
2001-10-29 08:48:59 51°13.693 2°55.823 21.532661 0.142474 0.753231  
2001-10-29 08:49:04 51°13.693 2°55.816 21.760298 0.142474 0.753231  
2001-10-29 08:49:09 51°13.694 2°55.81 21.785594 0.142474 0.753231  
2001-10-29 08:49:14 51°13.694 2°55.803 21.785594 0.142474 0.753231  
2001-10-29 08:49:19 51°13.694 2°55.797 21.378301 0.142474 0.753208  
2001-10-29 08:49:24 51°13.693 2°55.791 21.66922 0.142474 0.753219  
2001-10-29 08:49:28 51°13.693 2°55.786 21.805833 0.142474 0.753208  
2001-10-29 08:49:33 51°13.693 2°55.78 22.15078 0.142474 0.753208  
2001-10-29 08:49:38 51°13.692 2°55.775 21.736848 0.142474 0.753208  
2001-10-29 08:49:43 51°13.692 2°55.769 21.736848 0.142474 0.753208  
2001-10-29 08:49:48 51°13.691 2°55.764 21.747034 0.142474 0.753219  
2001-10-29 08:49:53 51°13.691 2°55.759 21.832217 0.142474 0.753208  
2001-10-29 08:49:58 51°13.69 2°55.754 21.830009 0.142474 0.753208  
2001-10-29 08:50:03 51°13.689 2°55.75 21.63637 0.142474 0.753208  
2001-10-29 08:50:07 51°13.689 2°55.747 21.665307 0.142474 0.753196  
2001-10-29 08:50:13 51°13.688 2°55.742 21.665307 0.142474 0.753196  
2001-10-29 08:50:18 51°13.687 2°55.738 21.44133 0.142474 0.753196  
2001-10-29 08:50:23 51°13.687 2°55.734 21.699368 0.142474 0.753196  
2001-10-29 08:50:28 51°13.686 2°55.731 21.68633 0.142474 0.753196  
2001-10-29 08:50:33 51°13.686 2°55.729 21.63115 0.142474 0.753185  
2001-10-29 08:50:38 51°13.686 2°55.728 21.548498 0.142474 0.753185  
2001-10-29 08:50:43 51°13.687 2°55.729 21.548498 0.142474 0.753185  
2001-10-29 08:50:47 51°13.688 2°55.729 21.668627 0.142474 0.753174  
2001-10-29 08:50:53 51°13.689 2°55.731 21.356512 0.142474 0.753162  
2001-10-29 08:50:58 51°13.691 2°55.733 22.08425 0.142474 0.753162  
2001-10-29 08:51:03 51°13.694 2°55.734 21.633048 0.142474 0.753174  
2001-10-29 08:51:08 51°13.697 2°55.736 21.66835 0.142474 0.753162  
2001-10-29 08:51:13 51°13.701 2°55.737 21.66835 0.142474 0.753162  
2001-10-29 08:51:18 51°13.704 2°55.737 21.824646 0.142474 0.753162  
2001-10-29 08:51:23 51°13.708 2°55.736 21.922182 0.142474 0.753174  
2001-10-29 08:51:28 51°13.713 2°55.735 22.145598 0.142474 0.753162  
2001-10-29 08:51:33 51°13.717 2°55.733 21.681115 0.142474 0.753162  
2001-10-29 08:51:38 51°13.722 2°55.73 21.585662 0.142474 0.753174  
2001-10-29 08:51:43 51°13.727 2°55.726 21.585662 0.142474 0.753174  
2001-10-29 08:51:47 51°13.731 2°55.722 22.008179 0.142474 0.753185  
2001-10-29 08:51:53 51°13.738 2°55.716 22.206266 0.142375 0.752628  
2001-10-29 08:51:58 51°13.744 2°55.71 22.412528 0.142375 0.752639  
2001-10-29 08:52:03 51°13.75 2°55.704 21.826933 0.142375 0.752662  
2001-10-29 08:52:08 51°13.757 2°55.698 21.873175 0.142375 0.752639  
2001-10-29 08:52:13 51°13.764 2°55.691 21.873175 0.142375 0.752639  
2001-10-29 08:52:18 51°13.771 2°55.683 22.036926 0.142375 0.752628  
2001-10-29 08:52:23 51°13.779 2°55.676 21.745139 0.142375 0.752651  
2001-10-29 08:52:28 51°13.787 2°55.668 21.561561 0.142375 0.752651  
2001-10-29 08:52:33 51°13.795 2°55.661 22.054028 0.142375 0.752662  
2001-10-29 08:52:38 51°13.803 2°55.653 21.53274 0.142375 0.752662  
2001-10-29 08:52:43 51°13.812 2°55.645 21.53274 0.142375 0.752662  
2001-10-29 08:52:47 51°13.819 2°55.639 21.636291 0.142375 0.752662  
2001-10-29 08:52:53 51°13.831 2°55.629 21.720974 0.142375 0.752662  
2001-10-29 08:52:58 51°13.841 2°55.621 21.628857 0.142375 0.752673  
2001-10-29 08:53:03 51°13.851 2°55.613 21.69921 0.142375 0.752673  
2001-10-29 08:53:08 51°13.862 2°55.604 21.894964 0.142375 0.752662  
2001-10-29 08:53:13 51°13.873 2°55.596 21.894964 0.142375 0.752662  
2001-10-29 08:53:18 51°13.884 2°55.587 21.798022 0.142375 0.752662  
2001-10-29 08:53:23 51°13.896 2°55.579 21.800547 0.142375 0.752651  
2001-10-29 08:53:28 51°13.908 2°55.57 21.517691 0.142375 0.752651  
2001-10-29 08:53:33 51°13.92 2°55.562 21.694588 0.142375 0.752651  
2001-10-29 08:53:38 51°13.932 2°55.554 21.395839 0.142375 0.752639  
2001-10-29 08:53:43 51°13.944 2°55.545 21.395839 0.142375 0.752639  
2001-10-29 08:53:48 51°13.956 2°55.537 20.990809 0.142375 0.752639  
2001-10-29 08:53:53 51°13.969 2°55.528 21.533532 0.142375 0.752628  
2001-10-29 08:53:58 51°13.981 2°55.519 21.189475 0.142375 0.752628  
2001-10-29 08:54:03 51°13.993 2°55.51 21.53365 0.142375 0.752628  
2001-10-29 08:54:07 51°14.003 2°55.503 21.148361 0.142375 0.752628  
2001-10-29 08:54:13 51°14.018 2°55.493 21.148361 0.142375 0.752628  
2001-10-29 08:54:18 51°14.031 2°55.484 21.794156 0.142375 0.752628  
2001-10-29 08:54:23 51°14.043 2°55.475 21.424874 0.142375 0.752628  
2001-10-29 08:54:28 51°14.056 2°55.466 21.663765 0.142375 0.752616  
2001-10-29 08:54:34 51°14.07 2°55.456 21.053306 0.142375 0.752628  
2001-10-29 08:54:38 51°14.081 2°55.449 21.525414 0.142375 0.752628  
2001-10-29 08:54:43 51°14.094 2°55.441 21.525414 0.142375 0.752628  
2001-10-29 08:54:48 51°14.106 2°55.432 21.711851 0.142375 0.752616  
2001-10-29 08:54:53 51°14.119 2°55.423 21.893231 0.142375 0.752616  
2001-10-29 08:54:58 51°14.131 2°55.413 21.56916 0.142375 0.752605  
2001-10-29 08:55:03 51°14.143 2°55.404 21.314462 0.142375 0.752605  
2001-10-29 08:55:07 51°14.153 2°55.396 22.011247 0.142375 0.752605  
2001-10-29 08:55:13 51°14.167 2°55.382 22.011247 0.142375 0.752605  
2001-10-29 08:55:18 51°14.179 2°55.371 21.468999 0.142375 0.752605  
2001-10-29 08:55:23 51°14.19 2°55.359 22.125652 0.142375 0.752605  
2001-10-29 08:55:28 51°14.201 2°55.347 21.394252 0.142375 0.752594  
2001-10-29 08:55:33 51°14.212 2°55.334 21.226628 0.142375 0.752582  
2001-10-29 08:55:38 51°14.222 2°55.32 21.6389 0.142375 0.752594  
2001-10-29 08:55:43 51°14.232 2°55.306 21.6389 0.142375 0.752594  
2001-10-29 08:55:48 51°14.242 2°55.292 21.519117 0.142375 0.752594  
2001-10-29 08:55:53 51°14.252 2°55.277 21.579964 0.142375 0.752594  
2001-10-29 08:55:58 51°14.262 2°55.262 21.143225 0.142276 0.752048  
2001-10-29 08:56:03 51°14.271 2°55.246 21.790487 0.142276 0.752048  
2001-10-29 08:56:08 51°14.28 2°55.229 21.443788 0.142276 0.752048  
2001-10-29 08:56:13 51°14.289 2°55.213 21.443788 0.142276 0.752048  
2001-10-29 08:56:18 51°14.298 2°55.196 21.610625 0.142276 0.752048  
2001-10-29 08:56:23 51°14.306 2°55.179 21.547746 0.142276 0.752048  
2001-10-29 08:56:28 51°14.315 2°55.162 21.76085 0.142276 0.752048  
2001-10-29 08:56:33 51°14.324 2°55.145 21.454135 0.142276 0.752037  
2001-10-29 08:56:38 51°14.332 2°55.128 21.044694 0.142276 0.752048  
2001-10-29 08:56:43 51°14.341 2°55.111 21.044694 0.142276 0.752048  
2001-10-29 08:56:48 51°14.349 2°55.094 21.892206 0.142276 0.752048  
2001-10-29 08:56:53 51°14.358 2°55.077 21.465075 0.142276 0.752059  
2001-10-29 08:56:58 51°14.367 2°55.06 21.765903 0.142276 0.752059  
2001-10-29 08:57:03 51°14.376 2°55.044 21.238876 0.142276 0.752059  
2001-10-29 08:57:07 51°14.385 2°55.032 21.834938 0.142276 0.752071  
2001-10-29 08:57:13 51°14.397 2°55.016 21.834938 0.142276 0.752071  
2001-10-29 08:57:18 51°14.408 2°55.002 21.296149 0.142276 0.752059  
2001-10-29 08:57:23 51°14.417 2°54.987 21.307908 0.142276 0.752048  
2001-10-29 08:57:28 51°14.426 2°54.971 21.366316 0.142276 0.752059  
2001-10-29 08:57:34 51°14.434 2°54.95 21.949626 0.142276 0.752059  
2001-10-29 08:57:38 51°14.439 2°54.936 21.579885 0.142276 0.752048  
2001-10-29 08:57:43 51°14.443 2°54.917 21.579885 0.142276 0.752048  
2001-10-29 08:57:48 51°14.447 2°54.898 21.526166 0.142276 0.752059  
2001-10-29 08:57:54 51°14.45 2°54.875 21.606788 0.142276 0.752048  
2001-10-29 08:57:58 51°14.451 2°54.859 21.558038 0.142276 0.752059  
2001-10-29 08:58:03 51°14.452 2°54.839 21.537729 0.142276 0.752059  
2001-10-29 08:58:09 51°14.453 2°54.814 21.73823 0.142276 0.752048  
2001-10-29 08:58:13 51°14.453 2°54.798 21.73823 0.142276 0.752048  
2001-10-29 08:58:18 51°14.452 2°54.777 21.365839 0.142276 0.752048  
2001-10-29 08:58:23 51°14.452 2°54.757 21.334318 0.142276 0.752059  
2001-10-29 08:58:28 51°14.451 2°54.736 21.719513 0.142276 0.752059  
2001-10-29 08:58:33 51°14.45 2°54.714 21.641351 0.142276 0.752048  
2001-10-29 08:58:38 51°14.449 2°54.693 21.345952 0.142276 0.752048  
2001-10-29 08:58:43 51°14.448 2°54.672 21.345952 0.142276 0.752048  
2001-10-29 08:58:48 51°14.447 2°54.651 21.769652 0.142276 0.752059  
2001-10-29 08:58:53 51°14.446 2°54.629 22.051433 0.142276 0.752059  
2001-10-29 08:58:58 51°14.444 2°54.608 21.022283 0.142276 0.752048  
2001-10-29 08:59:03 51°14.443 2°54.587 22.118897 0.142276 0.752059  
2001-10-29 08:59:08 51°14.442 2°54.565 21.855084 0.142276 0.752071  
2001-10-29 08:59:13 51°14.44 2°54.544 21.855084 0.142276 0.752071  
2001-10-29 08:59:18 51°14.439 2°54.523 21.77715 0.142276 0.752071  
2001-10-29 08:59:23 51°14.437 2°54.501 22.123099 0.142276 0.752082  
2001-10-29 08:59:27 51°14.436 2°54.484 21.444541 0.142276 0.752071  
2001-10-29 08:59:33 51°14.433 2°54.459 21.698539 0.142276 0.752071  
2001-10-29 08:59:38 51°14.431 2°54.438 21.872426 0.142276 0.752071  
2001-10-29 08:59:43 51°14.429 2°54.416 21.872426 0.142276 0.752071  
2001-10-29 08:59:48 51°14.427 2°54.395 21.694667 0.142276 0.752071  
2001-10-29 08:59:54 51°14.425 2°54.37 21.034845 0.142276 0.752059  
2001-10-29 08:59:58 51°14.423 2°54.353 21.441092 0.142276 0.752048  
2001-10-29 09:00:03 51°14.42 2°54.332 21.476886 0.142276 0.752059  
2001-10-29 09:00:07 51°14.419 2°54.315 21.214935 0.142276 0.752071  
2001-10-29 09:00:13 51°14.416 2°54.29 21.214935 0.142276 0.752071  
2001-10-29 09:00:18 51°14.413 2°54.269 20.965906 0.142276 0.752048  
2001-10-29 09:00:23 51°14.41 2°54.248 21.342061 0.142276 0.752059  
2001-10-29 09:00:28 51°14.408 2°54.228 21.153696 0.142276 0.752059  
2001-10-29 09:00:33 51°14.405 2°54.206 21.20877 0.142276 0.752059  
2001-10-29 09:00:38 51°14.403 2°54.184 21.334715 0.142276 0.752071  
2001-10-29 09:00:43 51°14.4 2°54.162 21.334715 0.142276 0.752071  
2001-10-29 09:00:48 51°14.398 2°54.14 21.42999 0.142276 0.752071  
2001-10-29 09:00:53 51°14.396 2°54.118 21.621027 0.142178 0.751525  
2001-10-29 09:00:58 51°14.394 2°54.096 21.042342 0.142276 0.752059  
2001-10-29 09:01:03 51°14.391 2°54.073 21.665663 0.142276 0.752071  
2001-10-29 09:01:08 51°14.388 2°54.051 21.510245 0.142178 0.751525  
2001-10-29 09:01:13 51°14.382 2°54.029 21.510245 0.142178 0.751525  
2001-10-29 09:01:18 51°14.376 2°54.009 22.112495 0.142276 0.752082  
2001-10-29 09:01:23 51°14.369 2°53.988 21.840142 0.142276 0.752082  
2001-10-29 09:01:28 51°14.362 2°53.968 21.605087 0.142276 0.752082  
2001-10-29 09:01:33 51°14.354 2°53.948 21.790171 0.142276 0.752082  
2001-10-29 09:01:38 51°14.347 2°53.927 22.062282 0.142276 0.752071  
2001-10-29 09:01:43 51°14.339 2°53.907 22.062282 0.142276 0.752071  
2001-10-29 09:01:48 51°14.331 2°53.886 21.772533 0.142276 0.752071  
2001-10-29 09:01:53 51°14.323 2°53.866 22.0848 0.142276 0.752071  
2001-10-29 09:01:58 51°14.314 2°53.846 21.840142 0.142276 0.752071  
2001-10-29 09:02:03 51°14.306 2°53.825 21.440854 0.142276 0.752093  
2001-10-29 09:02:09 51°14.296 2°53.799 22.061496 0.142276 0.752082  
2001-10-29 09:02:13 51°14.289 2°53.782 22.061496 0.142276 0.752082  
2001-10-29 09:02:18 51°14.281 2°53.761 21.527909 0.142276 0.752071  
2001-10-29 09:02:23 51°14.272 2°53.74 21.599667 0.142178 0.751536  
2001-10-29 09:02:28 51°14.264 2°53.719 21.828195 0.142276 0.752082  
2001-10-29 09:02:33 51°14.256 2°53.698 22.150073 0.142276 0.752082  
2001-10-29 09:02:38 51°14.247 2°53.677 21.733926 0.142178 0.751548  
2001-10-29 09:02:43 51°14.239 2°53.655 21.733926 0.142178 0.751548  
2001-10-29 09:02:48 51°14.231 2°53.633 22.152782 0.142178 0.751548  
2001-10-29 09:02:53 51°14.222 2°53.612 22.020765 0.142276 0.752105  
2001-10-29 09:02:58 51°14.214 2°53.59 21.800547 0.142178 0.751559  
2001-10-29 09:03:03 51°14.206 2°53.568 21.836239 0.142178 0.751559  
2001-10-29 09:03:09 51°14.197 2°53.54 21.472289 0.142178 0.751559  
2001-10-29 09:03:13 51°14.19 2°53.522 21.472289 0.142178 0.751559  
2001-10-29 09:03:18 51°14.183 2°53.499 21.864544 0.142276 0.752093  
2001-10-29 09:03:23 51°14.175 2°53.476 21.574938 0.142276 0.752105  
2001-10-29 09:03:28 51°14.168 2°53.453 22.475394 0.142178 0.751559  
2001-10-29 09:03:33 51°14.159 2°53.431 21.929034 0.142178 0.751548  
2001-10-29 09:03:38 51°14.15 2°53.409 21.734795 0.142178 0.751548  
2001-10-29 09:03:43 51°14.141 2°53.387 21.734795 0.142178 0.751548  
2001-10-29 09:03:48 51°14.132 2°53.364 21.866908 0.142276 0.752093  
2001-10-29 09:03:54 51°14.122 2°53.337 21.898273 0.142178 0.751548  
2001-10-29 09:03:58 51°14.115 2°53.318 22.166441 0.142178 0.751548  
2001-10-29 09:04:03 51°14.106 2°53.296 21.736453 0.142276 0.752093  
2001-10-29 09:04:08 51°14.098 2°53.273 21.407304 0.142178 0.751559  
2001-10-29 09:04:13 51°14.088 2°53.252 21.407304 0.142178 0.751559  
2001-10-29 09:04:18 51°14.079 2°53.229 21.767679 0.142276 0.752093  
2001-10-29 09:04:23 51°14.07 2°53.207 21.866593 0.142178 0.751559  
2001-10-29 09:04:28 51°14.063 2°53.184 21.464996 0.142178 0.751559  
2001-10-29 09:04:33 51°14.055 2°53.161 21.633206 0.142178 0.751559  
2001-10-29 09:04:38 51°14.047 2°53.137 21.568408 0.142178 0.75157  
2001-10-29 09:04:43 51°14.038 2°53.114 21.568408 0.142178 0.75157  
2001-10-29 09:04:48 51°14.03 2°53.091 21.480848 0.142178 0.75157  
2001-10-29 09:04:53 51°14.021 2°53.069 21.474112 0.142178 0.75157  
2001-10-29 09:04:58 51°14.013 2°53.046 22.127655 0.142178 0.75157  
2001-10-29 09:05:03 51°14.004 2°53.024 21.638109 0.142178 0.751582  
2001-10-29 09:05:08 51°13.995 2°53.001 22.148228 0.142178 0.75157  
2001-10-29 09:05:13 51°13.985 2°52.98 22.148228 0.142178 0.75157  
2001-10-29 09:05:18 51°13.976 2°52.958 22.289062 0.142178 0.75157  
2001-10-29 09:05:23 51°13.966 2°52.937 21.579489 0.142178 0.75157  
2001-10-29 09:05:28 51°13.957 2°52.915 21.160423 0.142276 0.752105  
2001-10-29 09:05:33 51°13.948 2°52.892 22.0081 0.142178 0.75157  
2001-10-29 09:05:38 51°13.94 2°52.868 21.922615 0.142178 0.751548  
2001-10-29 09:05:43 51°13.933 2°52.845 21.922615 0.142178 0.751548  
2001-10-29 09:05:48 51°13.926 2°52.821 21.934704 0.142178 0.75157  
2001-10-29 09:05:53 51°13.919 2°52.797 22.097451 0.142178 0.75157  
2001-10-29 09:05:58 51°13.912 2°52.773 21.931633 0.142178 0.75157  
2001-10-29 09:06:03 51°13.903 2°52.751 21.771309 0.142178 0.751559  
2001-10-29 09:06:08 51°13.895 2°52.728 22.094779 0.142178 0.751559  
2001-10-29 09:06:14 51°13.884 2°52.702 22.094779 0.142178 0.751559  
2001-10-29 09:06:18 51°13.877 2°52.684 22.389801 0.142178 0.75157  
2001-10-29 09:06:23 51°13.868 2°52.661 21.974107 0.142178 0.75157  
2001-10-29 09:06:28 51°13.859 2°52.639 22.451787 0.142178 0.75157  
2001-10-29 09:06:33 51°13.852 2°52.616 22.262885 0.142178 0.751559  
2001-10-29 09:06:38 51°13.843 2°52.594 21.980561 0.142178 0.751559  
2001-10-29 09:06:43 51°13.836 2°52.57 21.980561 0.142178 0.751559  
2001-10-29 09:06:48 51°13.827 2°52.548 22.032955 0.142178 0.751582  
2001-10-29 09:06:53 51°13.818 2°52.526 22.229954 0.142178 0.75157  
2001-10-29 09:06:58 51°13.81 2°52.503 21.878061 0.142178 0.75157  
2001-10-29 09:07:03 51°13.8 2°52.481 21.84787 0.142178 0.751582  
2001-10-29 09:07:08 51°13.792 2°52.458 21.691862 0.142178 0.751582  
2001-10-29 09:07:13 51°13.784 2°52.435 21.691862 0.142178 0.751582  
2001-10-29 09:07:18 51°13.776 2°52.412 21.726898 0.142178 0.75157  
2001-10-29 09:07:23 51°13.768 2°52.389 22.269273 0.142178 0.751582  
2001-10-29 09:07:28 51°13.76 2°52.366 21.988981 0.142178 0.75157  
2001-10-29 09:07:33 51°13.751 2°52.343 21.56065 0.142178 0.751593  
2001-10-29 09:07:38 51°13.743 2°52.32 21.36576 0.142178 0.751604  
2001-10-29 09:07:43 51°13.734 2°52.298 21.36576 0.142178 0.751604  
2001-10-29 09:07:48 51°13.726 2°52.275 21.753469 0.142178 0.751593  
2001-10-29 09:07:53 51°13.717 2°52.253 21.912887 0.142178 0.751593  
2001-10-29 09:07:58 51°13.708 2°52.231 21.748653 0.142178 0.751627  
2001-10-29 09:08:03 51°13.7 2°52.208 21.68795 0.142178 0.751616  
2001-10-29 09:08:08 51°13.691 2°52.186 22.079652 0.142178 0.75165  
2001-10-29 09:08:13 51°13.684 2°52.162 22.079652 0.142178 0.75165  
2001-10-29 09:08:18 51°13.676 2°52.139 21.851418 0.142178 0.751661  
2001-10-29 09:08:23 51°13.668 2°52.116 21.758995 0.142178 0.751673  
2001-10-29 09:08:28 51°13.66 2°52.093 21.56449 0.142178 0.751684  
2001-10-29 09:08:34 51°13.651 2°52.065 22.405566 0.142178 0.751673  
2001-10-29 09:08:38 51°13.643 2°52.048 21.730728 0.142178 0.751639  
2001-10-29 09:08:43 51°13.635 2°52.025 21.730728 0.142178 0.751639  
2001-10-29 09:08:48 51°13.626 2°52.003 21.950846 0.142178 0.751639  
2001-10-29 09:08:53 51°13.617 2°51.981 22.057369 0.142178 0.751604  
2001-10-29 09:08:58 51°13.607 2°51.959 22.088611 0.142178 0.751604  
2001-10-29 09:09:03 51°13.598 2°51.937 22.153763 0.142178 0.751582  
2001-10-29 09:09:08 51°13.589 2°51.915 21.865371 0.142178 0.75157  
2001-10-29 09:09:13 51°13.581 2°51.893 21.865371 0.142178 0.75157  
2001-10-29 09:09:18 51°13.572 2°51.87 21.802677 0.142178 0.751582  
2001-10-29 09:09:23 51°13.565 2°51.846 21.841522 0.142178 0.751582  
2001-10-29 09:09:28 51°13.556 2°51.824 22.031933 0.142178 0.751604  
2001-10-29 09:09:34 51°13.546 2°51.797 22.028079 0.142178 0.751627  
2001-10-29 09:09:38 51°13.538 2°51.779 21.388777 0.142178 0.751627  
2001-10-29 09:09:43 51°13.529 2°51.758 21.388777 0.142178 0.751627  
2001-10-29 09:09:48 51°13.519 2°51.737 22.070575 0.142178 0.75165  
2001-10-29 09:09:53 51°13.509 2°51.715 21.849959 0.142178 0.75165  
2001-10-29 09:09:58 51°13.5 2°51.693 21.875578 0.142178 0.751673  
2001-10-29 09:10:03 51°13.492 2°51.67 21.905403 0.142178 0.751661  
2001-10-29 09:10:08 51°13.483 2°51.647 21.808673 0.142178 0.751673  
2001-10-29 09:10:13 51°13.477 2°51.623 21.808673 0.142178 0.751673  
2001-10-29 09:10:18 51°13.469 2°51.6 22.25924 0.142178 0.751684  
2001-10-29 09:10:23 51°13.462 2°51.576 21.617823 0.142178 0.751695  
2001-10-29 09:10:28 51°13.454 2°51.553 21.912375 0.142178 0.751684  
2001-10-29 09:10:33 51°13.446 2°51.53 22.04129 0.142178 0.751684  
2001-10-29 09:10:38 51°13.438 2°51.507 21.688701 0.142178 0.751695  
2001-10-29 09:10:43 51°13.43 2°51.483 21.688701 0.142178 0.751695  
2001-10-29 09:10:48 51°13.422 2°51.46 22.366674 0.142178 0.751684  
2001-10-29 09:10:53 51°13.415 2°51.437 21.817035 0.142178 0.751695  
2001-10-29 09:10:58 51°13.407 2°51.414 21.501213 0.142178 0.751695  
2001-10-29 09:11:03 51°13.4 2°51.39 21.986778 0.142178 0.751707  
2001-10-29 09:11:08 51°13.391 2°51.367 22.20858 0.142178 0.751707  
2001-10-29 09:11:13 51°13.384 2°51.344 22.20858 0.142178 0.751707  
2001-10-29 09:11:18 51°13.376 2°51.321 21.670603 0.142178 0.751718  
2001-10-29 09:11:23 51°13.368 2°51.297 21.733334 0.142178 0.751718  
2001-10-29 09:11:28 51°13.361 2°51.274 22.156354 0.142178 0.751707  
2001-10-29 09:11:33 51°13.353 2°51.251 21.7996 0.142178 0.751707  
2001-10-29 09:11:38 51°13.345 2°51.228 21.729938 0.142178 0.751718  
2001-10-29 09:11:43 51°13.338 2°51.204 21.729938 0.142178 0.751718  
2001-10-29 09:11:48 51°13.33 2°51.181 21.970959 0.142178 0.751707  
2001-10-29 09:11:53 51°13.322 2°51.158 22.151055 0.142178 0.751707  
2001-10-29 09:11:58 51°13.313 2°51.136 21.895043 0.142178 0.751707  
2001-10-29 09:12:03 51°13.304 2°51.114 21.708572 0.142178 0.751695  
2001-10-29 09:12:08 51°13.294 2°51.093 22.41421 0.142178 0.751707  
2001-10-29 09:12:13 51°13.285 2°51.071 22.41421 0.142178 0.751707  
2001-10-29 09:12:18 51°13.276 2°51.049 21.810527 0.142178 0.751707  
2001-10-29 09:12:23 51°13.269 2°51.026 21.900558 0.142178 0.751695  
2001-10-29 09:12:28 51°13.26 2°51.003 21.893585 0.142178 0.751707  
2001-10-29 09:12:33 51°13.253 2°50.98 21.99445 0.142178 0.751707  
2001-10-29 09:12:38 51°13.244 2°50.957 21.869273 0.142178 0.751718  
2001-10-29 09:12:43 51°13.236 2°50.934 21.869273 0.142178 0.751718  
2001-10-29 09:12:48 51°13.228 2°50.912 21.935964 0.142178 0.751729  
2001-10-29 09:12:53 51°13.22 2°50.889 21.938957 0.142178 0.751718  
2001-10-29 09:12:58 51°13.212 2°50.866 22.167383 0.142178 0.751741  
2001-10-29 09:13:03 51°13.203 2°50.843 21.972848 0.142178 0.751741  
2001-10-29 09:13:08 51°13.195 2°50.82 21.587798 0.142178 0.751741  
2001-10-29 09:13:14 51°13.185 2°50.793 21.587798 0.142178 0.751741  
2001-10-29 09:13:18 51°13.178 2°50.775 21.913202 0.142178 0.751741  
2001-10-29 09:13:23 51°13.17 2°50.753 21.719315 0.142178 0.751741  
2001-10-29 09:13:28 51°13.16 2°50.731 21.84783 0.142178 0.751752  
2001-10-29 09:13:33 51°13.152 2°50.709 21.969739 0.142178 0.751741  
2001-10-29 09:13:38 51°13.143 2°50.687 21.727885 0.142178 0.751752  
2001-10-29 09:13:43 51°13.134 2°50.665 21.727885 0.142178 0.751752  
2001-10-29 09:13:48 51°13.127 2°50.641 21.470386 0.142178 0.751741  
2001-10-29 09:13:54 51°13.118 2°50.613 22.003852 0.142178 0.751752  
2001-10-29 09:13:58 51°13.113 2°50.594 21.784213 0.142178 0.751741  
2001-10-29 09:14:03 51°13.106 2°50.571 22.044986 0.142178 0.751764  
2001-10-29 09:14:08 51°13.099 2°50.548 22.146462 0.142178 0.751752  
2001-10-29 09:14:13 51°13.09 2°50.526 22.146462 0.142178 0.751752  
2001-10-29 09:14:18 51°13.083 2°50.503 21.854729 0.142178 0.751752  
2001-10-29 09:14:23 51°13.074 2°50.481 22.276092 0.142178 0.751775  
2001-10-29 09:14:29 51°13.064 2°50.454 21.866514 0.142178 0.751752  
2001-10-29 09:14:33 51°13.057 2°50.437 22.054028 0.142178 0.751752  
2001-10-29 09:14:38 51°13.048 2°50.414 22.18822 0.142178 0.751764  
2001-10-29 09:14:43 51°13.039 2°50.393 22.18822 0.142178 0.751764  
2001-10-29 09:14:48 51°13.029 2°50.372 21.669812 0.142178 0.751764  
2001-10-29 09:14:53 51°13.019 2°50.351 21.449457 0.142178 0.751764  
2001-10-29 09:14:58 51°13.011 2°50.329 21.780228 0.142178 0.751752  
2001-10-29 09:15:03 51°13.002 2°50.306 21.614224 0.142178 0.751775  
2001-10-29 09:15:08 51°12.994 2°50.283 21.573315 0.142178 0.751775  
2001-10-29 09:15:13 51°12.987 2°50.259 21.573315 0.142178 0.751775  
2001-10-29 09:15:18 51°12.979 2°50.237 21.354963 0.142178 0.751764  
2001-10-29 09:15:23 51°12.971 2°50.214 21.838999 0.142178 0.751764  
2001-10-29 09:15:28 51°12.962 2°50.192 21.840142 0.142178 0.751786  
2001-10-29 09:15:33 51°12.953 2°50.169 21.612246 0.142178 0.751798  
2001-10-29 09:15:38 51°12.944 2°50.148 21.618733 0.142178 0.751775  
2001-10-29 09:15:43 51°12.936 2°50.125 21.618733 0.142178 0.751775  
2001-10-29 09:15:48 51°12.928 2°50.102 21.491665 0.142178 0.751775  
2001-10-29 09:15:53 51°12.919 2°50.08 22.198734 0.142178 0.751775  
2001-10-29 09:15:58 51°12.911 2°50.057 21.58855 0.142178 0.751775  
2001-10-29 09:16:03 51°12.901 2°50.036 21.688543 0.142178 0.751809  
2001-10-29 09:16:08 51°12.893 2°50.013 21.66254 0.142079 0.75124  
2001-10-29 09:16:13 51°12.884 2°49.991 21.66254 0.142079 0.75124  
2001-10-29 09:16:18 51°12.876 2°49.968 21.43114 0.142178 0.751786  
2001-10-29 09:16:23 51°12.867 2°49.945 22.337158 0.142178 0.751798  
2001-10-29 09:16:28 51°12.859 2°49.923 21.599351 0.142178 0.751798  
2001-10-29 09:16:33 51°12.851 2°49.9 22.278913 0.142178 0.751786  
2001-10-29 09:16:38 51°12.842 2°49.877 21.986935 0.142178 0.751798  
2001-10-29 09:16:43 51°12.833 2°49.855 21.986935 0.142178 0.751798  
2001-10-29 09:16:48 51°12.825 2°49.833 22.022377 0.142178 0.751798  
2001-10-29 09:16:53 51°12.815 2°49.811 22.088375 0.142079 0.751252  
2001-10-29 09:16:58 51°12.806 2°49.789 21.512107 0.142178 0.751798  
2001-10-29 09:17:03 51°12.798 2°49.766 21.609557 0.142178 0.751775  
2001-10-29 09:17:09 51°12.788 2°49.739 21.777939 0.142079 0.75124  
2001-10-29 09:17:13 51°12.782 2°49.72 21.777939 0.142079 0.75124  
2001-10-29 09:17:18 51°12.773 2°49.698 22.28675 0.142079 0.751252  
2001-10-29 09:17:23 51°12.765 2°49.675 21.612088 0.142178 0.751786  
2001-10-29 09:17:28 51°12.756 2°49.653 21.745416 0.142178 0.751786  
2001-10-29 09:17:33 51°12.747 2°49.631 21.583485 0.142079 0.75124  
2001-10-29 09:17:38 51°12.739 2°49.609 21.84306 0.142079 0.751252  
2001-10-29 09:17:43 51°12.73 2°49.587 21.84306 0.142079 0.751252  
2001-10-29 09:17:48 51°12.721 2°49.565 21.818415 0.142079 0.75124  
2001-10-29 09:17:53 51°12.712 2°49.543 21.84373 0.142079 0.751252  
2001-10-29 09:17:58 51°12.704 2°49.52 21.818494 0.142079 0.75124  
2001-10-29 09:18:03 51°12.694 2°49.499 22.103775 0.142178 0.751798  
2001-10-29 09:18:09 51°12.684 2°49.472 21.564806 0.142079 0.751252  
2001-10-29 09:18:13 51°12.677 2°49.454 21.564806 0.142079 0.751252  
2001-10-29 09:18:18 51°12.67 2°49.431 21.305723 0.142079 0.751252  
2001-10-29 09:18:23 51°12.663 2°49.408 21.763613 0.142079 0.751252  
2001-10-29 09:18:28 51°12.655 2°49.385 22.367613 0.142178 0.751798  
2001-10-29 09:18:33 51°12.648 2°49.362 21.884405 0.142079 0.751263  
2001-10-29 09:18:38 51°12.638 2°49.341 21.821728 0.142079 0.751263  
2001-10-29 09:18:43 51°12.63 2°49.318 21.821728 0.142079 0.751263  
2001-10-29 09:18:49 51°12.62 2°49.292 21.755088 0.142079 0.751275  
2001-10-29 09:18:53 51°12.614 2°49.273 21.399727 0.142079 0.751263  
2001-10-29 09:18:58 51°12.605 2°49.251 21.758837 0.142079 0.751286  
2001-10-29 09:19:03 51°12.597 2°49.228 21.469594 0.142079 0.751286  
2001-10-29 09:19:08 51°12.589 2°49.206 21.861548 0.142079 0.751275  
2001-10-29 09:19:13 51°12.581 2°49.182 21.861548 0.142079 0.751275  
2001-10-29 09:19:18 51°12.573 2°49.16 21.96112 0.142079 0.751275  
2001-10-29 09:19:23 51°12.565 2°49.138 21.961749 0.142079 0.751286  
2001-10-29 09:19:28 51°12.556 2°49.116 22.025759 0.142079 0.751297  
2001-10-29 09:19:34 51°12.546 2°49.089 21.741073 0.142079 0.751309  
2001-10-29 09:19:38 51°12.539 2°49.071 21.996496 0.142079 0.751309  
2001-10-29 09:19:43 51°12.53 2°49.049 21.996496 0.142079 0.751309  
2001-10-29 09:19:48 51°12.523 2°49.026 21.867539 0.142079 0.751297  
2001-10-29 09:19:53 51°12.514 2°49.004 22.157728 0.142079 0.75132  
2001-10-29 09:19:58 51°12.506 2°48.981 22.253321 0.142079 0.751331  
2001-10-29 09:20:03 51°12.498 2°48.959 21.80674 0.142079 0.751331  
2001-10-29 09:20:08 51°12.489 2°48.937 22.097922 0.142079 0.751331  
2001-10-29 09:20:14 51°12.478 2°48.911 22.097922 0.142079 0.751331  
2001-10-29 09:20:18 51°12.471 2°48.893 22.03673 0.142079 0.751343  
2001-10-29 09:20:23 51°12.463 2°48.87 22.326469 0.142079 0.751331  
2001-10-29 09:20:28 51°12.455 2°48.847 21.813524 0.142079 0.751343  
2001-10-29 09:20:33 51°12.447 2°48.824 22.61777 0.142079 0.751331  
2001-10-29 09:20:38 51°12.438 2°48.802 22.331481 0.142079 0.751343  
2001-10-29 09:20:43 51°12.43 2°48.78 22.331481 0.142079 0.751343  
2001-10-29 09:20:49 51°12.419 2°48.755 22.140376 0.142079 0.751354  
2001-10-29 09:20:53 51°12.411 2°48.737 22.012623 0.142079 0.751343  
2001-10-29 09:20:58 51°12.403 2°48.715 22.148974 0.142079 0.751331  
2001-10-29 09:21:03 51°12.394 2°48.693 22.343775 0.142079 0.75132  
2001-10-29 09:21:08 51°12.386 2°48.67 22.214973 0.142079 0.751343  
2001-10-29 09:21:13 51°12.377 2°48.649 22.214973 0.142079 0.751343  
2001-10-29 09:21:18 51°12.368 2°48.627 22.53551 0.142079 0.75132  
2001-10-29 09:21:24 51°12.357 2°48.602 22.021512 0.142079 0.751331  
2001-10-29 09:21:28 51°12.349 2°48.585 22.246931 0.142079 0.751331  
2001-10-29 09:21:33 51°12.339 2°48.564 22.122942 0.142079 0.75132  
2001-10-29 09:21:38 51°12.331 2°48.542 21.942224 0.142079 0.751309  
2001-10-29 09:21:43 51°12.322 2°48.52 21.942224 0.142079 0.751309  
2001-10-29 09:21:48 51°12.315 2°48.496 22.000115 0.142079 0.751309  
2001-10-29 09:21:54 51°12.305 2°48.47 22.349138 0.142079 0.75132  
2001-10-29 09:21:58 51°12.299 2°48.452 21.902725 0.142079 0.751309  
2001-10-29 09:22:03 51°12.289 2°48.43 22.066252 0.142079 0.75132  
2001-10-29 09:22:08 51°12.28 2°48.409 22.450418 0.142079 0.751297  
2001-10-29 09:22:13 51°12.27 2°48.388 22.450418 0.142079 0.751297  
2001-10-29 09:22:18 51°12.262 2°48.366 22.290903 0.142079 0.751309  
2001-10-29 09:22:23 51°12.252 2°48.345 22.383032 0.142079 0.751309  
2001-10-29 09:22:28 51°12.245 2°48.322 21.998502 0.142079 0.751297  
2001-10-29 09:22:33 51°12.236 2°48.301 21.874436 0.142079 0.751309  
2001-10-29 09:22:38 51°12.227 2°48.279 21.875184 0.142079 0.751309  
2001-10-29 09:22:43 51°12.218 2°48.258 21.875184 0.142079 0.751309  
2001-10-29 09:22:48 51°12.209 2°48.236 21.845504 0.142079 0.751309  
2001-10-29 09:22:53 51°12.201 2°48.214 22.076627 0.142079 0.75132  
2001-10-29 09:22:58 51°12.193 2°48.191 22.26943 0.142079 0.75132  
2001-10-29 09:23:03 51°12.186 2°48.168 21.915369 0.142079 0.751309  
2001-10-29 09:23:08 51°12.179 2°48.145 22.274133 0.142079 0.751309  
2001-10-29 09:23:13 51°12.171 2°48.122 22.274133 0.142079 0.751309  
2001-10-29 09:23:18 51°12.164 2°48.099 21.818573 0.142079 0.75132  
2001-10-29 09:23:23 51°12.155 2°48.077 21.660327 0.142079 0.751309  
2001-10-29 09:23:28 51°12.147 2°48.055 21.662935 0.142079 0.75132  
2001-10-29 09:23:33 51°12.139 2°48.032 22.439081 0.142079 0.751309  
2001-10-29 09:23:38 51°12.131 2°48.01 22.151212 0.142079 0.751297  
2001-10-29 09:23:43 51°12.123 2°47.988 22.151212 0.142079 0.751297  
2001-10-29 09:23:48 51°12.115 2°47.965 21.92482 0.142079 0.751309  
2001-10-29 09:23:53 51°12.107 2°47.943 22.253791 0.142079 0.751309  
2001-10-29 09:23:58 51°12.099 2°47.92 21.897879 0.142079 0.751309  
2001-10-29 09:24:03 51°12.091 2°47.898 22.44217 0.142079 0.751309  
2001-10-29 09:24:08 51°12.084 2°47.875 22.251518 0.142079 0.751309  
2001-10-29 09:24:13 51°12.077 2°47.852 22.251518 0.142079 0.751309  
2001-10-29 09:24:18 51°12.069 2°47.829 22.062911 0.142079 0.751309  
2001-10-29 09:24:23 51°12.062 2°47.806 21.483622 0.142079 0.751309  
2001-10-29 09:24:28 51°12.053 2°47.785 22.034803 0.142079 0.751309  
2001-10-29 09:24:33 51°12.045 2°47.763 22.158748 0.142079 0.751309  
2001-10-29 09:24:38 51°12.036 2°47.742 21.811118 0.142079 0.751309  
2001-10-29 09:24:43 51°12.027 2°47.72 21.811118 0.142079 0.751309  
2001-10-29 09:24:48 51°12.019 2°47.698 21.906191 0.142079 0.751297  
2001-10-29 09:24:53 51°12.01 2°47.676 21.558434 0.142079 0.751309  
2001-10-29 09:24:58 51°12.003 2°47.653 21.599034 0.142079 0.751297  
2001-10-29 09:25:03 51°11.996 2°47.63 21.975799 0.142079 0.751297  
2001-10-29 09:25:08 51°11.989 2°47.607 21.781885 0.142079 0.751286  
2001-10-29 09:25:13 51°11.982 2°47.583 21.781885 0.142079 0.751286  
2001-10-29 09:25:18 51°11.975 2°47.561 22.303283 0.142079 0.751297  
2001-10-29 09:25:23 51°11.967 2°47.538 21.882238 0.142079 0.751297  
2001-10-29 09:25:28 51°11.959 2°47.515 22.017854 0.142079 0.751297  
2001-10-29 09:25:33 51°11.951 2°47.493 22.143988 0.142079 0.751286  
2001-10-29 09:25:38 51°11.943 2°47.471 22.171543 0.142079 0.751297  
2001-10-29 09:25:43 51°11.933 2°47.45 22.171543 0.142079 0.751297  
2001-10-29 09:25:49 51°11.922 2°47.425 22.210031 0.142079 0.751275  
2001-10-29 09:25:53 51°11.914 2°47.408 21.787725 0.142079 0.751286  
2001-10-29 09:25:58 51°11.905 2°47.387 22.311547 0.142079 0.751286  
2001-10-29 09:26:03 51°11.897 2°47.365 22.11874 0.14198 0.75074  
2001-10-29 09:26:08 51°11.889 2°47.342 22.346124 0.14198 0.750729  
2001-10-29 09:26:13 51°11.88 2°47.32 22.346124 0.14198 0.750729  
2001-10-29 09:26:18 51°11.872 2°47.298 22.416909 0.142079 0.751263  
2001-10-29 09:26:23 51°11.864 2°47.275 22.062714 0.14198 0.75074  
2001-10-29 09:26:29 51°11.854 2°47.249 21.930333 0.14198 0.75074  
2001-10-29 09:26:34 51°11.845 2°47.227 22.19183 0.14198 0.750729  
2001-10-29 09:26:38 51°11.838 2°47.21 22.132995 0.14198 0.750717  
2001-10-29 09:26:43 51°11.83 2°47.187 22.132995 0.14198 0.750717  
2001-10-29 09:26:48 51°11.822 2°47.164 22.013135 0.14198 0.750717  
2001-10-29 09:26:53 51°11.816 2°47.14 22.29631 0.14198 0.750717  
2001-10-29 09:26:58 51°11.809 2°47.117 22.228111 0.14198 0.750717  
2001-10-29 09:27:03 51°11.802 2°47.093 21.590845 0.14198 0.750706  
2001-10-29 09:27:09 51°11.794 2°47.066 22.324315 0.14198 0.750729  
2001-10-29 09:27:14 51°11.786 2°47.042 22.324315 0.14198 0.750729  
2001-10-29 09:27:18 51°11.78 2°47.024 22.168129 0.14198 0.750729  
2001-10-29 09:27:23 51°11.773 2°47.001 22.009319 0.14198 0.750717  
2001-10-29 09:27:28 51°11.765 2°46.979 22.074505 0.14198 0.750706  
2001-10-29 09:27:34 51°11.756 2°46.951 22.08256 0.142079 0.751252  
2001-10-29 09:27:38 51°11.749 2°46.932 22.469024 0.14198 0.750706  
2001-10-29 09:27:43 51°11.741 2°46.91 22.469024 0.14198 0.750706  
2001-10-29 09:27:49 51°11.731 2°46.883 22.33614 0.14198 0.750706  
2001-10-29 09:27:53 51°11.725 2°46.865 22.377397 0.14198 0.750717  
2001-10-29 09:27:58 51°11.716 2°46.843 21.66337 0.14198 0.750729  
2001-10-29 09:28:03 51°11.708 2°46.82 22.091479 0.14198 0.750717  
2001-10-29 09:28:08 51°11.7 2°46.797 21.989729 0.14198 0.750706  
2001-10-29 09:28:13 51°11.692 2°46.774 21.989729 0.14198 0.750706  
2001-10-29 09:28:18 51°11.685 2°46.752 22.708389 0.14198 0.750717  
2001-10-29 09:28:23 51°11.677 2°46.729 21.642221 0.14198 0.750729  
2001-10-29 09:28:28 51°11.669 2°46.706 22.419764 0.14198 0.750717  
2001-10-29 09:28:33 51°11.661 2°46.683 21.967496 0.14198 0.750717  
2001-10-29 09:28:38 51°11.653 2°46.66 21.802007 0.14198 0.750729  
2001-10-29 09:28:43 51°11.645 2°46.637 21.802007 0.14198 0.750729  
2001-10-29 09:28:48 51°11.637 2°46.614 22.197675 0.14198 0.750729  
2001-10-29 09:28:53 51°11.629 2°46.591 21.939153 0.14198 0.750717  
2001-10-29 09:28:58 51°11.621 2°46.568 22.548823 0.14198 0.750717  
2001-10-29 09:29:03 51°11.613 2°46.546 22.392618 0.14198 0.750729  
2001-10-29 09:29:08 51°11.606 2°46.523 22.135233 0.14198 0.750717  
2001-10-29 09:29:13 51°11.598 2°46.499 22.135233 0.14198 0.750717  
2001-10-29 09:29:18 51°11.59 2°46.476 22.266138 0.14198 0.750729  
2001-10-29 09:29:23 51°11.582 2°46.453 22.295996 0.14198 0.750729  
2001-10-29 09:29:28 51°11.574 2°46.43 22.138688 0.14198 0.750729  
2001-10-29 09:29:33 51°11.566 2°46.408 22.394104 0.14198 0.750729  
2001-10-29 09:29:38 51°11.558 2°46.385 22.209286 0.14198 0.750729  
2001-10-29 09:29:43 51°11.55 2°46.362 22.209286 0.14198 0.750729  
2001-10-29 09:29:49 51°11.541 2°46.334 22.311978 0.14198 0.750717  
2001-10-29 09:29:53 51°11.535 2°46.315 22.244775 0.14198 0.750729  
2001-10-29 09:29:58 51°11.527 2°46.293 22.463943 0.14198 0.750729  
2001-10-29 09:30:03 51°11.519 2°46.271 22.691716 0.14198 0.75074  
2001-10-29 09:30:08 51°11.511 2°46.248 22.595965 0.14198 0.75074  
2001-10-29 09:30:13 51°11.502 2°46.226 22.595965 0.14198 0.75074  
2001-10-29 09:30:18 51°11.494 2°46.203 21.961435 0.14198 0.75074  
2001-10-29 09:30:23 51°11.485 2°46.182 22.502587 0.14198 0.75074  
2001-10-29 09:30:28 51°11.477 2°46.158 21.702291 0.14198 0.750729  
2001-10-29 09:30:33 51°11.468 2°46.137 22.286201 0.14198 0.75074  
2001-10-29 09:30:38 51°11.46 2°46.114 22.482115 0.14198 0.750751  
2001-10-29 09:30:43 51°11.451 2°46.092 22.482115 0.14198 0.750751  
2001-10-29 09:30:49 51°11.442 2°46.064 22.550228 0.14198 0.75074  
2001-10-29 09:30:53 51°11.436 2°46.046 22.132092 0.14198 0.75074  
2001-10-29 09:30:58 51°11.429 2°46.023 22.001059 0.14198 0.750751  
2001-10-29 09:31:03 51°11.421 2°46 22.481099 0.14198 0.75074  
2001-10-29 09:31:08 51°11.414 2°45.975 22.359316 0.14198 0.750751  
2001-10-29 09:31:13 51°11.408 2°45.951 22.359316 0.14198 0.750751  
2001-10-29 09:31:18 51°11.402 2°45.927 22.035078 0.14198 0.750763  
2001-10-29 09:31:23 51°11.396 2°45.903 22.09969 0.14198 0.750763  
2001-10-29 09:31:28 51°11.389 2°45.879 22.071125 0.14198 0.750751  
2001-10-29 09:31:34 51°11.38 2°45.852 22.392031 0.14198 0.750763  
2001-10-29 09:31:38 51°11.374 2°45.833 21.975799 0.14198 0.750763  
2001-10-29 09:31:43 51°11.367 2°45.81 21.975799 0.14198 0.750763  
2001-10-29 09:31:49 51°11.358 2°45.782 22.111278 0.14198 0.750763  
2001-10-29 09:31:53 51°11.352 2°45.763 22.139905 0.14198 0.750763  
2001-10-29 09:31:58 51°11.344 2°45.74 22.496727 0.14198 0.750763  
2001-10-29 09:32:03 51°11.336 2°45.717 22.237796 0.14198 0.750763  
2001-10-29 09:32:08 51°11.328 2°45.695 22.469727 0.14198 0.750763  
2001-10-29 09:32:13 51°11.32 2°45.672 22.469727 0.14198 0.750763  
2001-10-29 09:32:18 51°11.312 2°45.649 22.596511 0.14198 0.750763  
2001-10-29 09:32:23 51°11.304 2°45.626 22.244422 0.14198 0.750774  
2001-10-29 09:32:28 51°11.296 2°45.604 22.244618 0.14198 0.750763